Pagina principale
METAR-TAF:

METAR-TAF

Aeroporti :

Ferrara, Italia

latitudine: 44-50N, longitudine: 011-37E, altezza: 10 m

Osservazione

Il bollettino è stato emesso 1 ora e 0 minuti fa, alle 10:55 UTC
Vento 3 kt da est/nord-est
Temperature 3°C
Umidità 87%
Pressione 1018 hPa
Visibilità: 6000 m
Nubi sparse ad un'altezza di 4000 ft
Nuvoloso ad un'altezza di 7000 ft

METAR: LIPF 211055Z 06003KT 6000 SCT040 BKN070 03/01 Q1018 RMK OVC VIS MIN 6000

Ora: 12:55 (11:55 UTC)


TAF: mancante

Osservazioni e previsioni meteorologiche di più di 4000 aeroporti (messaggi METAR e TAF).

Le stazioni disponibili sono rappresentate dai dischi gialli e rossi sulla carta.

Puntare il mouse per vedere il nome della stazione.

Clicca sopra per visualizzare le osservazioni e previsioni meteorologiche.

Per cambiare la mappa : fare clic sui pulsanti verdi con una croce nera per ingrandire, il pulsante verde con un trattino per diminuire, o sulla freccia verde per le mappe adiacenti.


METAR-TAF: